EPKT/KTW METAR and TAF weather

Enter ICAO airport designator
Station Type Date Time Source
EPKT METAR 2022/12/10 01:00 UTC NOAA

EPKT 100100Z 02007KT 3100 -SN BR SCT003 OVC005 00/M00 Q1002


Station Type Date Time Source
EPKT Decoded METAR 2022/12/10 01:00 UTC NOAA

Katowice, Poland (EPKT) 50-14N 019-02E 284M
Dec 09, 2022 - 08:00 PM EST / 2022.12.10 0100 UTC
Wind: from the NNE (020 degrees) at 8 MPH (7 KT):0
Visibility: 1 mile(s):0
Sky conditions: overcast
Weather: light snow; mist
Temperature: 32 F (0 C)
Windchill: 24 F (-4 C):1
Dew Point: 32 F (0 C)
Relative Humidity: 100%
Pressure (altimeter): 29.59 in. Hg (1002 hPa)
ob: EPKT 100100Z 02007KT 3100 -SN BR SCT003 OVC005 00/M00 Q1002
cycle: 1

Station Type Date Time Source
EPKT TAF 2022/12/09 18:37 UTC NOAA

TAF EPKT 091730Z 0918/1018 06010KT 3000 -RASN BR BKN012
TEMPO 0918/1006 1400 SN RASN BR OVC007 PROB40
TEMPO 0918/1002 0700 +SN +SNRA OVC003

Example: see airport list